createdAt,value
2022-12-14T00:00:02.112Z,-7.80
2022-12-14T00:02:43.983Z,-7.75
2022-12-14T00:05:27.571Z,-7.76
2022-12-14T00:08:18.384Z,-7.70
2022-12-14T00:10:59.226Z,-7.71
2022-12-14T00:13:41.002Z,-7.70
2022-12-14T00:16:22.231Z,-7.70
2022-12-14T00:19:05.577Z,-7.71
2022-12-14T00:21:46.441Z,-7.71
2022-12-14T00:24:28.821Z,-7.68
2022-12-14T00:27:09.143Z,-7.69
2022-12-14T00:29:49.024Z,-7.70
2022-12-14T00:32:30.320Z,-7.72
2022-12-14T00:35:10.636Z,-7.73
2022-12-14T00:37:51.533Z,-7.72
2022-12-14T00:40:33.027Z,-7.71
2022-12-14T00:43:14.764Z,-7.70
2022-12-14T00:45:55.887Z,-7.73
2022-12-14T00:48:37.208Z,-7.72
2022-12-14T00:51:19.010Z,-7.70
2022-12-14T00:53:59.988Z,-7.71
2022-12-14T00:56:40.045Z,-7.73
2022-12-14T00:59:26.976Z,-7.72
2022-12-14T01:02:10.677Z,-7.72
2022-12-14T01:04:50.103Z,-7.72
2022-12-14T01:07:30.217Z,-7.74
2022-12-14T01:10:10.578Z,-7.73
2022-12-14T01:12:51.792Z,-7.73
2022-12-14T01:15:32.874Z,-7.73
2022-12-14T01:18:12.952Z,-7.75
2022-12-14T01:20:54.398Z,-7.73
2022-12-14T01:23:37.485Z,-7.75
2022-12-14T01:26:21.209Z,-7.73
2022-12-14T01:29:01.489Z,-7.72
2022-12-14T01:31:43.328Z,-7.72
2022-12-14T01:34:24.277Z,-7.72
2022-12-14T01:37:04.149Z,-7.73
2022-12-14T01:39:45.501Z,-7.75
2022-12-14T01:42:25.324Z,-7.74
2022-12-14T01:45:05.606Z,-7.74
2022-12-14T01:47:48.014Z,-7.75
2022-12-14T01:50:31.432Z,-7.77
2022-12-14T01:53:13.283Z,-7.77
2022-12-14T01:55:54.663Z,-7.79
2022-12-14T01:58:35.335Z,-7.82
2022-12-14T02:01:18.865Z,-7.82
2022-12-14T02:04:00.109Z,-7.83
2022-12-14T02:06:43.993Z,-7.86
2022-12-14T02:09:25.325Z,-7.86
2022-12-14T02:12:07.653Z,-7.90
2022-12-14T02:14:48.646Z,-7.88
2022-12-14T02:17:28.937Z,-7.88
2022-12-14T02:20:12.336Z,-7.90
2022-12-14T02:23:13.054Z,-7.91
2022-12-14T02:26:11.044Z,-7.92
2022-12-14T02:29:19.907Z,-7.93
2022-12-14T02:32:04.526Z,-7.93
2022-12-14T02:34:51.004Z,-7.95
2022-12-14T02:37:35.677Z,-7.94
2022-12-14T02:40:20.549Z,-7.95
2022-12-14T02:43:05.759Z,-7.94
2022-12-14T02:45:46.519Z,-7.96
2022-12-14T02:48:27.471Z,-7.96
2022-12-14T02:51:11.351Z,-7.95
2022-12-14T02:53:53.740Z,-7.94
2022-12-14T02:56:37.055Z,-7.95
2022-12-14T02:59:17.483Z,-7.95
2022-12-14T03:01:59.424Z,-7.96
2022-12-14T03:04:45.917Z,-7.97
2022-12-14T03:07:31.205Z,-7.98
2022-12-14T03:10:17.177Z,-7.99
2022-12-14T03:12:58.451Z,-8.02
2022-12-14T03:15:39.528Z,-8.02
2022-12-14T03:18:20.180Z,-8.04
2022-12-14T03:20:59.967Z,-8.05
2022-12-14T03:23:42.540Z,-8.06
2022-12-14T03:26:23.620Z,-8.09
2022-12-14T03:29:03.764Z,-8.10
2022-12-14T03:31:44.458Z,-8.10
2022-12-14T03:34:31.390Z,-8.15
2022-12-14T03:37:12.380Z,-8.14
2022-12-14T03:39:52.993Z,-8.17
2022-12-14T03:42:36.755Z,-8.23
2022-12-14T03:45:18.147Z,-8.20
2022-12-14T03:48:01.356Z,-8.23
2022-12-14T03:50:42.539Z,-8.28
2022-12-14T03:53:26.480Z,-8.28
2022-12-14T03:56:08.670Z,-8.30
2022-12-14T03:58:57.033Z,-8.33
2022-12-14T04:01:43.481Z,-8.38
2022-12-14T04:04:26.867Z,-8.42
2022-12-14T04:07:10.737Z,-8.43
2022-12-14T04:09:51.715Z,-8.46
2022-12-14T04:12:51.688Z,-8.47
2022-12-14T04:15:53.029Z,-8.49
2022-12-14T04:18:59.113Z,-8.52
2022-12-14T04:21:41.221Z,-8.56
2022-12-14T04:24:40.954Z,-8.56
2022-12-14T04:27:21.555Z,-8.59
2022-12-14T04:30:02.477Z,-8.63
2022-12-14T04:32:45.178Z,-8.65
2022-12-14T04:35:26.723Z,-8.67
2022-12-14T04:38:14.363Z,-8.69
2022-12-14T04:40:54.604Z,-8.69
2022-12-14T04:43:36.825Z,-8.73
2022-12-14T04:46:18.150Z,-8.76
2022-12-14T04:49:02.344Z,-8.79
2022-12-14T04:51:44.342Z,-8.80
2022-12-14T04:54:25.944Z,-8.80
2022-12-14T04:57:07.621Z,-8.82
2022-12-14T04:59:47.414Z,-8.84
2022-12-14T05:02:31.884Z,-8.87
2022-12-14T05:05:13.097Z,-8.92
2022-12-14T05:07:58.031Z,-8.94
2022-12-14T05:10:41.334Z,-8.98
2022-12-14T05:13:23.111Z,-9.01
2022-12-14T05:16:03.926Z,-9.03
2022-12-14T05:18:45.489Z,-9.06
2022-12-14T05:21:44.136Z,-9.06
2022-12-14T05:24:26.031Z,-9.08
2022-12-14T05:27:07.076Z,-9.08
2022-12-14T05:29:48.855Z,-9.11
2022-12-14T05:32:30.163Z,-9.15
2022-12-14T05:35:11.770Z,-9.16
2022-12-14T05:37:52.683Z,-9.18
2022-12-14T05:40:34.491Z,-9.20
2022-12-14T05:43:15.618Z,-9.23
2022-12-14T05:46:00.215Z,-9.24
2022-12-14T05:48:46.058Z,-9.25
2022-12-14T05:51:31.333Z,-9.25
2022-12-14T05:54:12.339Z,-9.28
2022-12-14T05:56:52.424Z,-9.29
2022-12-14T05:59:33.525Z,-9.29
2022-12-14T06:02:13.443Z,-9.33
2022-12-14T06:04:54.788Z,-9.30
2022-12-14T06:07:34.575Z,-9.28
2022-12-14T06:10:14.362Z,-9.28
2022-12-14T06:12:54.170Z,-9.28
2022-12-14T06:15:34.306Z,-9.27
2022-12-14T06:18:17.487Z,-9.25
2022-12-14T06:21:00.868Z,-9.23
2022-12-14T06:23:41.914Z,-9.20
2022-12-14T06:26:23.082Z,-9.22
2022-12-14T06:29:06.200Z,-9.18
2022-12-14T06:31:49.853Z,-9.17
2022-12-14T06:34:36.864Z,-9.17
2022-12-14T06:37:19.614Z,-9.11
2022-12-14T06:39:59.549Z,-9.08
2022-12-14T06:42:40.838Z,-9.07
2022-12-14T06:45:22.958Z,-9.07
2022-12-14T06:48:03.679Z,-9.07
2022-12-14T06:50:43.484Z,-9.04
2022-12-14T06:53:23.281Z,-9.03
2022-12-14T06:56:09.884Z,-9.01
2022-12-14T06:58:50.973Z,-8.96
2022-12-14T07:01:34.417Z,-8.94
2022-12-14T07:04:17.548Z,-8.97
2022-12-14T07:06:58.413Z,-8.95
2022-12-14T07:09:40.657Z,-8.97
2022-12-14T07:12:21.175Z,-9.00
2022-12-14T07:15:04.864Z,-9.01
2022-12-14T07:17:45.527Z,-9.02
2022-12-14T07:20:25.372Z,-9.01
2022-12-14T07:23:05.167Z,-9.03
2022-12-14T07:25:44.950Z,-9.03
2022-12-14T07:28:29.675Z,-9.03
2022-12-14T07:31:11.490Z,-9.04
2022-12-14T07:33:54.063Z,-9.04
2022-12-14T07:36:33.855Z,-9.02
2022-12-14T07:39:15.425Z,-8.96
2022-12-14T07:41:56.618Z,-8.95
2022-12-14T07:44:38.381Z,-8.94
2022-12-14T07:47:19.439Z,-8.91
2022-12-14T07:50:01.215Z,-8.95
2022-12-14T07:52:44.996Z,-8.92
2022-12-14T07:55:25.802Z,-8.88
2022-12-14T07:58:06.646Z,-8.88
2022-12-14T08:00:48.599Z,-8.89
2022-12-14T08:03:31.938Z,-8.86
2022-12-14T08:06:15.079Z,-8.83
2022-12-14T08:08:55.676Z,-8.79
2022-12-14T08:11:36.900Z,-8.76
2022-12-14T08:14:18.057Z,-8.76
2022-12-14T08:17:00.082Z,-8.73
2022-12-14T08:20:00.290Z,-8.71
2022-12-14T08:22:40.083Z,-8.68
2022-12-14T08:25:21.908Z,-8.65
2022-12-14T08:28:02.901Z,-8.63
2022-12-14T08:30:42.701Z,-8.59
2022-12-14T08:33:22.861Z,-8.57
2022-12-14T08:36:08.122Z,-8.52
2022-12-14T08:38:49.016Z,-8.48
2022-12-14T08:41:30.043Z,-8.43
2022-12-14T08:44:12.918Z,-8.34
2022-12-14T08:46:52.784Z,-8.33
2022-12-14T08:49:34.542Z,-8.26
2022-12-14T08:52:13.646Z,-8.18
2022-12-14T08:54:55.754Z,-8.14
2022-12-14T08:57:36.766Z,-8.09
2022-12-14T09:00:17.284Z,-8.04
2022-12-14T09:02:58.061Z,-8.00
2022-12-14T09:05:39.464Z,-7.99
2022-12-14T09:08:20.923Z,-7.96
2022-12-14T09:11:02.379Z,-7.98
2022-12-14T09:13:45.624Z,-7.96
2022-12-14T09:16:26.205Z,-7.95
2022-12-14T09:19:06.431Z,-7.94
2022-12-14T09:21:46.314Z,-7.89
2022-12-14T09:24:28.329Z,-7.91
2022-12-14T09:27:09.408Z,-7.90
2022-12-14T09:29:50.479Z,-7.88
2022-12-14T09:32:31.868Z,-7.89
2022-12-14T09:35:16.128Z,-7.87
2022-12-14T09:37:56.230Z,-7.85
2022-12-14T09:40:36.066Z,-7.89
2022-12-14T09:43:20.606Z,-7.91
2022-12-14T09:46:01.748Z,-7.89
2022-12-14T09:48:43.965Z,-7.93
2022-12-14T09:51:26.694Z,-7.91
2022-12-14T09:54:06.325Z,-7.93
2022-12-14T09:56:48.108Z,-7.91
2022-12-14T09:59:29.334Z,-7.93
2022-12-14T10:02:32.268Z,-7.91
2022-12-14T10:05:21.447Z,-7.93
2022-12-14T10:08:04.026Z,-7.92
2022-12-14T10:10:46.426Z,-7.94
2022-12-14T10:13:29.848Z,-7.95
2022-12-14T10:16:15.299Z,-7.93
2022-12-14T10:19:02.872Z,-7.89
2022-12-14T10:21:48.376Z,-7.83
2022-12-14T10:24:28.549Z,-7.73
2022-12-14T10:27:11.141Z,-7.66
2022-12-14T10:29:51.923Z,-7.65
2022-12-14T10:32:34.642Z,-7.59
2022-12-14T10:35:16.281Z,-7.56
2022-12-14T10:37:59.599Z,-7.47
2022-12-14T10:40:39.849Z,-7.40
2022-12-14T10:43:25.073Z,-7.32
2022-12-14T10:46:13.689Z,-7.26
2022-12-14T10:48:57.138Z,-7.16
2022-12-14T10:51:41.691Z,-7.10
2022-12-14T10:54:24.275Z,-7.07
2022-12-14T10:57:06.283Z,-6.97
2022-12-14T11:00:05.242Z,-6.78
2022-12-14T11:02:49.867Z,-6.68
2022-12-14T11:05:36.912Z,-6.56
2022-12-14T11:11:18.668Z,-6.29
2022-12-14T11:14:08.399Z,-6.21
2022-12-14T11:16:50.460Z,-6.03
2022-12-14T11:19:33.312Z,-6.06
2022-12-14T11:22:22.213Z,-5.91
2022-12-14T11:25:03.731Z,-5.87
2022-12-14T11:27:43.585Z,-5.72
2022-12-14T11:30:23.675Z,-5.68
2022-12-14T11:33:06.788Z,-5.49
2022-12-14T11:35:51.802Z,-5.23
2022-12-14T11:38:34.546Z,-4.94
2022-12-14T11:41:21.528Z,-4.54
2022-12-14T11:44:03.149Z,-4.27
2022-12-14T11:46:45.847Z,-3.85
2022-12-14T11:49:27.290Z,-3.43
2022-12-14T11:52:10.798Z,-3.08
2022-12-14T11:55:07.523Z,-2.74
2022-12-14T11:57:49.049Z,-2.40
2022-12-14T12:00:27.942Z,-2.19
2022-12-14T12:03:13.271Z,-2.00
2022-12-14T12:05:53.981Z,-1.72
2022-12-14T12:08:36.297Z,-1.40
2022-12-14T12:11:17.711Z,-1.16
2022-12-14T12:13:59.683Z,-1.01
2022-12-14T12:16:40.886Z,-0.92
2022-12-14T12:19:24.140Z,-0.79
2022-12-14T12:22:07.492Z,-0.77
2022-12-14T12:25:16.703Z,-0.66
2022-12-14T12:27:54.355Z,-0.68
2022-12-14T12:30:36.508Z,-0.56
2022-12-14T12:33:23.957Z,-0.37
2022-12-14T12:36:05.147Z,-0.32
2022-12-14T12:38:52.867Z,-0.20
2022-12-14T12:41:37.379Z,0.00
2022-12-14T12:44:20.542Z,0.17
2022-12-14T12:47:24.357Z,0.28
2022-12-14T12:50:10.591Z,0.34
2022-12-14T12:52:59.246Z,0.39
2022-12-14T12:55:46.816Z,0.32
2022-12-14T12:58:27.888Z,0.36
2022-12-14T13:01:18.801Z,0.34
2022-12-14T13:04:02.575Z,0.23
2022-12-14T13:06:45.556Z,0.19
2022-12-14T13:09:31.192Z,-0.10
2022-12-14T13:12:15.425Z,-0.31
2022-12-14T13:14:56.030Z,-0.53
2022-12-14T13:17:36.962Z,-0.67
2022-12-14T13:20:19.030Z,-0.80
2022-12-14T13:23:28.331Z,-0.86
2022-12-14T13:26:06.670Z,-0.82
2022-12-14T13:28:51.331Z,-0.74
2022-12-14T13:31:35.374Z,-0.69
2022-12-14T13:34:22.274Z,-0.71
2022-12-14T13:37:25.292Z,-0.43
2022-12-14T13:40:17.629Z,-0.16
2022-12-14T13:43:01.084Z,-0.33
2022-12-14T13:45:42.588Z,-0.29
2022-12-14T13:48:24.395Z,-0.36
2022-12-14T13:51:05.227Z,-0.54
2022-12-14T13:53:48.196Z,-0.80
2022-12-14T13:56:33.578Z,-0.93
2022-12-14T13:59:21.578Z,-1.01
2022-12-14T14:02:39.195Z,-1.16
2022-12-14T14:05:37.426Z,-1.32
2022-12-14T14:08:34.812Z,-1.47
2022-12-14T14:11:38.109Z,-1.58
2022-12-14T14:14:21.359Z,-1.75
2022-12-14T14:17:02.842Z,-1.94
2022-12-14T14:19:43.191Z,-2.02
2022-12-14T14:22:30.729Z,-2.15
2022-12-14T14:25:25.557Z,-2.27
2022-12-14T14:28:06.521Z,-2.36
2022-12-14T14:30:50.031Z,-2.52
2022-12-14T14:33:48.682Z,-2.64
2022-12-14T14:36:33.622Z,-2.75
2022-12-14T14:39:54.961Z,-2.86
2022-12-14T14:42:28.419Z,-2.99
2022-12-14T14:45:09.752Z,-3.11
2022-12-14T14:47:53.911Z,-3.25
2022-12-14T14:50:35.856Z,-3.36
2022-12-14T14:53:28.438Z,-3.47
2022-12-14T14:56:27.684Z,-3.57
2022-12-14T14:59:25.816Z,-3.70
2022-12-14T15:02:15.913Z,-3.80
2022-12-14T15:04:57.191Z,-3.89
2022-12-14T15:07:37.876Z,-4.01
2022-12-14T15:10:22.903Z,-4.09
2022-12-14T15:13:05.912Z,-4.19
2022-12-14T15:15:47.286Z,-4.29
2022-12-14T15:18:31.264Z,-4.38
2022-12-14T15:21:12.911Z,-4.46
2022-12-14T15:24:15.675Z,-4.58
2022-12-14T15:26:56.681Z,-4.69
2022-12-14T15:29:41.121Z,-4.77
2022-12-14T15:32:22.601Z,-4.87
2022-12-14T15:35:02.803Z,-4.95
2022-12-14T15:37:48.733Z,-5.02
2022-12-14T15:40:30.822Z,-5.10
2022-12-14T15:43:18.174Z,-5.19
2022-12-14T15:46:04.733Z,-5.26
2022-12-14T15:48:45.391Z,-5.34
2022-12-14T15:51:28.499Z,-5.42
2022-12-14T15:54:14.122Z,-5.51
2022-12-14T15:56:55.412Z,-5.58
2022-12-14T15:59:36.109Z,-5.65
2022-12-14T16:02:18.941Z,-5.72
2022-12-14T16:05:01.592Z,-5.80
2022-12-14T16:07:42.380Z,-5.88
2022-12-14T16:10:24.039Z,-5.95
2022-12-14T16:13:07.652Z,-6.00
2022-12-14T16:15:48.137Z,-6.07
2022-12-14T16:18:30.530Z,-6.16
2022-12-14T16:21:23.322Z,-6.22
2022-12-14T16:24:18.066Z,-6.30
2022-12-14T16:26:59.756Z,-6.35
2022-12-14T16:29:45.004Z,-6.41
2022-12-14T16:32:31.374Z,-6.47
2022-12-14T16:35:17.926Z,-6.53
2022-12-14T16:38:05.312Z,-6.58
2022-12-14T16:40:53.479Z,-6.64
2022-12-14T16:43:35.382Z,-6.72
2022-12-14T16:46:21.441Z,-6.77
2022-12-14T16:49:20.024Z,-6.85
2022-12-14T16:52:08.999Z,-6.90
2022-12-14T16:55:06.412Z,-6.96
2022-12-14T16:57:53.426Z,-7.02
2022-12-14T17:00:34.783Z,-7.06
2022-12-14T17:03:19.482Z,-7.11
2022-12-14T17:06:00.705Z,-7.16
2022-12-14T17:08:43.413Z,-7.19
2022-12-14T17:11:24.395Z,-7.24
2022-12-14T17:14:04.260Z,-7.31
2022-12-14T17:16:44.671Z,-7.35
2022-12-14T17:19:26.998Z,-7.39
2022-12-14T17:22:11.044Z,-7.41
2022-12-14T17:24:51.457Z,-7.43
2022-12-14T17:27:31.229Z,-7.50
2022-12-14T17:30:15.579Z,-7.51
2022-12-14T17:32:57.037Z,-7.58
2022-12-14T17:35:37.068Z,-7.64
2022-12-14T17:38:17.271Z,-7.67
2022-12-14T17:41:00.278Z,-7.68
2022-12-14T17:43:48.281Z,-7.71
2022-12-14T17:46:32.430Z,-7.77
2022-12-14T17:49:14.295Z,-7.78
2022-12-14T17:51:55.266Z,-7.81
2022-12-14T17:54:38.537Z,-7.85
2022-12-14T17:57:22.572Z,-7.89
2022-12-14T18:00:21.082Z,-7.93
2022-12-14T18:03:04.088Z,-7.96
2022-12-14T18:05:49.045Z,-7.98
2022-12-14T18:08:31.172Z,-8.00
2022-12-14T18:11:14.158Z,-8.04
2022-12-14T18:13:55.291Z,-8.08
2022-12-14T18:16:36.679Z,-8.10
2022-12-14T18:19:19.967Z,-8.09
2022-12-14T18:22:00.958Z,-8.12
2022-12-14T18:24:40.837Z,-8.15
2022-12-14T18:27:20.610Z,-8.17
2022-12-14T18:30:02.030Z,-8.20
2022-12-14T18:32:43.424Z,-8.20
2022-12-14T18:35:24.553Z,-8.24
2022-12-14T18:38:06.696Z,-8.27
2022-12-14T18:40:49.598Z,-8.32
2022-12-14T18:43:33.107Z,-8.35
2022-12-14T18:46:17.377Z,-8.38
2022-12-14T18:48:58.274Z,-8.41
2022-12-14T18:51:41.014Z,-8.42
2022-12-14T18:54:21.234Z,-8.43
2022-12-14T18:57:04.770Z,-8.47
2022-12-14T18:59:45.461Z,-8.51
2022-12-14T19:02:25.405Z,-8.51
2022-12-14T19:05:07.262Z,-8.52
2022-12-14T19:07:48.074Z,-8.56
2022-12-14T19:10:30.369Z,-8.58
2022-12-14T19:13:14.323Z,-8.60
2022-12-14T19:15:55.618Z,-8.63
2022-12-14T19:18:37.291Z,-8.64
2022-12-14T19:21:18.449Z,-8.64
2022-12-14T19:24:00.122Z,-8.69
2022-12-14T19:26:43.188Z,-8.72
2022-12-14T19:29:24.330Z,-8.75
2022-12-14T19:32:06.223Z,-8.76
2022-12-14T19:34:46.988Z,-8.80
2022-12-14T19:37:26.776Z,-8.80
2022-12-14T19:40:13.541Z,-8.84
2022-12-14T19:42:54.487Z,-8.86
2022-12-14T19:45:39.403Z,-8.85
2022-12-14T19:48:20.639Z,-8.86
2022-12-14T19:51:05.344Z,-8.92
2022-12-14T19:53:48.466Z,-8.92
2022-12-14T19:56:31.525Z,-8.90
2022-12-14T19:59:12.479Z,-8.94
2022-12-14T20:01:52.390Z,-8.96
2022-12-14T20:04:33.678Z,-8.97
2022-12-14T20:07:15.281Z,-9.01
2022-12-14T20:09:56.460Z,-9.02
2022-12-14T20:12:37.945Z,-9.02
2022-12-14T20:15:19.249Z,-9.04
2022-12-14T20:17:59.087Z,-9.07
2022-12-14T20:20:38.971Z,-9.09
2022-12-14T20:23:21.476Z,-9.07
2022-12-14T20:26:02.425Z,-9.09
2022-12-14T20:28:43.228Z,-9.11
2022-12-14T20:31:25.784Z,-9.10
2022-12-14T20:34:08.960Z,-9.12
2022-12-14T20:36:48.933Z,-9.11
2022-12-14T20:39:28.779Z,-9.12
2022-12-14T20:42:09.211Z,-9.14
2022-12-14T20:44:49.953Z,-9.19
2022-12-14T20:47:29.780Z,-9.19
2022-12-14T20:50:09.713Z,-9.19
2022-12-14T20:52:51.011Z,-9.20
2022-12-14T20:55:31.052Z,-9.19
2022-12-14T20:58:12.215Z,-9.22
2022-12-14T21:00:52.013Z,-9.21
2022-12-14T21:03:32.344Z,-9.21
2022-12-14T21:06:15.920Z,-9.22
2022-12-14T21:09:09.688Z,-9.19
2022-12-14T21:12:08.436Z,-9.18
2022-12-14T21:14:52.110Z,-9.18
2022-12-14T21:17:33.557Z,-9.17
2022-12-14T21:20:14.069Z,-9.16
2022-12-14T21:22:55.239Z,-9.13
2022-12-14T21:25:35.219Z,-9.14
2022-12-14T21:28:18.504Z,-9.15
2022-12-14T21:31:04.058Z,-9.13
2022-12-14T21:33:49.608Z,-9.12
2022-12-14T21:36:30.321Z,-9.13
2022-12-14T21:39:10.146Z,-9.12
2022-12-14T21:42:10.104Z,-9.13
2022-12-14T21:44:51.133Z,-9.11
2022-12-14T21:47:33.892Z,-9.11
2022-12-14T21:50:15.189Z,-9.06
2022-12-14T21:52:56.305Z,-9.06
2022-12-14T21:55:38.121Z,-9.06
2022-12-14T21:58:19.176Z,-9.04
2022-12-14T22:01:03.370Z,-9.04
2022-12-14T22:03:43.650Z,-9.04
2022-12-14T22:06:25.069Z,-9.05
2022-12-14T22:09:08.357Z,-9.03
2022-12-14T22:11:49.345Z,-9.06
2022-12-14T22:14:29.478Z,-9.06
2022-12-14T22:17:11.579Z,-9.07
2022-12-14T22:19:54.146Z,-9.06
2022-12-14T22:22:34.968Z,-9.06
2022-12-14T22:25:16.635Z,-9.08
2022-12-14T22:27:57.803Z,-9.07
2022-12-14T22:30:58.417Z,-9.08
2022-12-14T22:33:38.951Z,-9.08
2022-12-14T22:36:22.032Z,-9.09
2022-12-14T22:39:02.620Z,-9.12
2022-12-14T22:41:42.622Z,-9.12
2022-12-14T22:44:23.889Z,-9.15
2022-12-14T22:47:03.649Z,-9.16
2022-12-14T22:50:04.509Z,-9.20
2022-12-14T22:52:49.698Z,-9.22
2022-12-14T22:55:30.688Z,-9.24
2022-12-14T22:58:11.622Z,-9.28
2022-12-14T23:00:53.935Z,-9.29
2022-12-14T23:03:35.091Z,-9.31
2022-12-14T23:06:18.955Z,-9.34
2022-12-14T23:09:16.590Z,-9.36
2022-12-14T23:12:21.232Z,-9.37
2022-12-14T23:15:19.398Z,-9.40
2022-12-14T23:18:20.306Z,-9.43
2022-12-14T23:21:27.480Z,-9.43
2022-12-14T23:24:28.007Z,-9.45
2022-12-14T23:27:26.514Z,-9.48
2022-12-14T23:30:24.650Z,-9.48
2022-12-14T23:33:25.008Z,-9.49
2022-12-14T23:36:23.996Z,-9.49
2022-12-14T23:39:22.622Z,-9.49
2022-12-14T23:42:22.402Z,-9.50
2022-12-14T23:45:20.535Z,-9.51
2022-12-14T23:48:18.098Z,-9.51
2022-12-14T23:51:18.536Z,-9.49
2022-12-14T23:54:16.051Z,-9.49
2022-12-14T23:57:13.478Z,-9.49
